Time;durP1;ratioP1;P1;durP2;ratioP2;P2;SDS_P1;SDS_P2;PMS_P1;PMS_P2;Temp;Humidity;BMP_temperature;BMP_pressure;BME280_temperature;BME280_humidity;BME280_pressure;Samples;Min_cycle;Max_cycle;Signal;HPM_P1;HPM_P2
2023/09/08 00:00:34;;;;;;;;;;;;;;;-146.25;77.46;52019.47;2088746;28;31305;-63
2023/09/08 00:01:35;;;;;;;;;;;;;;;-146.25;77.43;52007.31;2088093;28;33668;-63
2023/09/08 00:02:37;;;;;;;;;;;;;;;-146.25;77.53;52039.75;2088058;28;37536;-64
2023/09/08 00:03:39;;;;;;;;;;;;;;;-146.25;77.14;52015.41;2088410;28;37652;-64
2023/09/08 00:04:40;;;;;;;;;;;;;;;-146.25;77.15;52031.63;2088506;28;34686;-64
2023/09/08 00:05:44;;;;;;;;;;;;;;;-146.25;76.79;52041.75;2088782;28;34837;-63
2023/09/08 00:06:46;;;;;;;;;;;;;;;-146.25;76.94;52043.78;2088688;28;38822;-63
2023/09/08 00:07:47;;;;;;;;;;;;;;;-146.25;77.29;52039.75;2088582;28;36154;-63
2023/09/08 00:08:49;;;;;;;;;;;;;;;-146.25;77.41;52035.69;2088294;28;37415;-63
2023/09/08 00:09:51;;;;;;;;;;;;;;;-146.25;77.46;52058.00;2088563;28;36414;-64
2023/09/08 00:10:54;;;;;;;;;;;;;;;-146.25;77.90;52068.13;2088504;28;37384;-63
2023/09/08 00:11:57;;;;;;;;;;;;;;;-146.25;77.57;51999.19;2089285;28;20071;-63
2023/09/08 00:12:59;;;;;;;;;;;;;;;-146.25;78.19;52011.34;2088101;28;38079;-64
2023/09/08 00:14:00;;;;;;;;;;;;;;;-146.25;78.26;52021.50;2088510;28;36102;-63
2023/09/08 00:15:02;;;;;;;;;;;;;;;-146.25;78.24;51999.19;2087877;28;38634;-63
2023/09/08 00:16:04;;;;;;;;;;;;;;;-146.25;78.16;52035.69;2089357;28;19971;-63
2023/09/08 00:17:08;;;;;;;;;;;;;;;-146.25;78.42;52013.38;2088173;28;37531;-63
2023/09/08 00:18:09;;;;;;;;;;;;;;;-146.25;78.37;52037.72;2088518;28;34714;-63
2023/09/08 00:19:15;;;;;;;;;;;;;;;-146.25;78.33;52041.75;2088743;28;19932;-64
2023/09/08 00:20:16;;;;;;;;;;;;;;;-146.25;78.32;52033.66;2088351;28;36318;-64
2023/09/08 00:21:18;;;;;;;;;;;;;;;-146.25;78.15;52013.38;2088009;28;37660;-63
2023/09/08 00:22:20;;;;;;;;;;;;;;;-146.25;78.85;52039.75;2088598;28;34058;-63
2023/09/08 00:23:21;;;;;;;;;;;;;;;-146.25;78.92;52009.31;2087952;28;38168;-63
2023/09/08 00:24:23;;;;;;;;;;;;;;;-146.25;79.00;52033.66;2088823;28;34624;-64
2023/09/08 00:25:25;;;;;;;;;;;;;;;-146.25;79.10;52031.63;2088311;28;32788;-63
2023/09/08 00:26:26;;;;;;;;;;;;;;;-146.25;79.57;52051.91;2087959;28;38300;-64
2023/09/08 00:27:28;;;;;;;;;;;;;;;-146.25;79.43;52070.16;2088669;28;26651;-64
2023/09/08 00:28:29;;;;;;;;;;;;;;;-146.25;79.01;52053.94;2088411;28;30697;-63
2023/09/08 00:29:31;;;;;;;;;;;;;;;-146.25;78.87;52023.53;2079058;28;33659;-63
2023/09/08 00:30:32;;;;;;;;;;;;;;;-146.25;78.83;52045.81;2080571;28;19922;-63
2023/09/08 00:31:34;;;;;;;;;;;;;;;-146.25;79.02;52035.69;2080033;28;29899;-64
2023/09/08 00:32:36;;;;;;;;;;;;;;;-146.25;79.39;52025.53;2079877;28;28890;-63
2023/09/08 00:33:38;;;;;;;;;;;;;;;-146.25;79.47;52013.38;2079291;28;34497;-63
2023/09/08 00:34:41;;;;;;;;;;;;;;;-146.25;79.87;52011.34;2080100;28;19921;-63
2023/09/08 00:35:48;;;;;;;;;;;;;;;-146.25;79.88;52033.66;2079385;28;30437;-64
2023/09/08 00:36:51;;;;;;;;;;;;;;;-146.25;80.16;52023.53;2080153;28;20821;-64
2023/09/08 00:37:53;;;;;;;;;;;;;;;-146.25;80.38;52051.91;2080882;28;20067;-63
2023/09/08 00:38:55;;;;;;;;;;;;;;;-146.25;80.29;52066.09;2080026;28;34431;-63
2023/09/08 00:39:56;;;;;;;;;;;;;;;-146.25;80.64;52035.69;2080291;28;27616;-63
2023/09/08 00:41:00;;;;;;;;;;;;;;;-146.25;80.61;52039.75;2080715;28;26760;-64
2023/09/08 00:42:03;;;;;;;;;;;;;;;-146.25;80.87;52031.63;2080354;28;20015;-63
2023/09/08 00:43:04;;;;;;;;;;;;;;;-146.25;80.95;52027.56;2080628;28;29737;-63
2023/09/08 00:44:08;;;;;;;;;;;;;;;-146.25;81.18;52019.47;2079148;28;29511;-63
2023/09/08 00:45:10;;;;;;;;;;;;;;;-146.25;81.08;52035.69;2071122;28;33979;-63
2023/09/08 00:46:12;;;;;;;;;;;;;;;-146.25;81.59;52017.44;2079038;28;30822;-63
2023/09/08 00:47:14;;;;;;;;;;;;;;;-146.25;82.02;52049.88;2080785;28;21391;-63
2023/09/08 00:48:19;;;;;;;;;;;;;;;-146.25;82.17;52011.34;2084424;28;34761;-64
2023/09/08 00:49:21;;;;;;;;;;;;;;;-146.25;82.51;52031.63;2095747;28;32940;-64
2023/09/08 00:50:23;;;;;;;;;;;;;;;-146.25;82.88;52047.84;2095897;28;33491;-63
2023/09/08 00:51:25;;;;;;;;;;;;;;;-146.25;82.94;52064.06;2088908;28;27464;-63
2023/09/08 00:52:32;;;;;;;;;;;;;;;-146.25;82.95;52037.72;2088290;28;37161;-63
2023/09/08 00:53:34;;;;;;;;;;;;;;;-146.25;82.91;52068.13;2087897;28;34831;-63
2023/09/08 00:54:37;;;;;;;;;;;;;;;-146.25;83.10;52023.53;2087876;28;23723;-63
2023/09/08 00:55:39;;;;;;;;;;;;;;;-146.25;83.29;52023.53;2095767;28;31183;-63
2023/09/08 00:56:41;;;;;;;;;;;;;;;-146.25;83.91;52047.84;2096078;28;19986;-63
2023/09/08 00:57:45;;;;;;;;;;;;;;;-146.25;84.11;52031.63;2096424;28;28173;-64
2023/09/08 00:58:47;;;;;;;;;;;;;;;-146.25;84.06;52074.22;2087420;28;36149;-64
2023/09/08 00:59:48;;;;;;;;;;;;;;;-146.25;84.58;52051.91;2087570;28;30559;-63
2023/09/08 01:00:50;;;;;;;;;;;;;;;-146.25;84.35;52049.88;2088650;28;24371;-63
2023/09/08 01:01:52;;;;;;;;;;;;;;;-146.25;84.40;52053.94;2088244;28;32434;-64
2023/09/08 01:02:54;;;;;;;;;;;;;;;-146.25;84.33;52037.72;2088351;28;26949;-64
2023/09/08 01:03:56;;;;;;;;;;;;;;;-146.25;84.53;52035.69;2088508;28;36707;-64
2023/09/08 01:04:59;;;;;;;;;;;;;;;-146.25;84.15;52035.69;2087205;28;27766;-63
2023/09/08 01:06:02;;;;;;;;;;;;;;;-146.25;84.80;52062.03;2088078;28;32319;-64
2023/09/08 01:07:04;;;;;;;;;;;;;;;-146.25;84.96;52074.22;2088201;28;28087;-64
2023/09/08 01:08:09;;;;;;;;;;;;;;;-146.25;85.02;52060.00;2088799;28;22658;-63
2023/09/08 01:09:11;;;;;;;;;;;;;;;-146.25;85.64;52086.38;2087736;28;34311;-63
2023/09/08 01:10:13;;;;;;;;;;;;;;;-146.25;85.27;52003.25;2087980;28;28250;-63
2023/09/08 01:11:17;;;;;;;;;;;;;;;-146.25;85.55;52017.44;2087428;28;28395;-63
2023/09/08 01:12:21;;;;;;;;;;;;;;;-146.25;85.56;52029.59;2088902;28;23103;-63
2023/09/08 01:13:23;;;;;;;;;;;;;;;-146.25;85.92;52015.41;2088961;28;21633;-63
2023/09/08 01:14:26;;;;;;;;;;;;;;;-146.25;86.09;52037.72;2087745;28;28335;-63
2023/09/08 01:15:31;;;;;;;;;;;;;;;-146.25;85.70;52047.84;2087681;28;19968;-64
2023/09/08 01:16:34;;;;;;;;;;;;;;;-146.25;85.15;52031.63;2089044;28;19925;-62
2023/09/08 01:17:37;;;;;;;;;;;;;;;-146.25;86.19;52047.84;2088382;28;20553;-63
2023/09/08 01:18:40;;;;;;;;;;;;;;;-146.25;86.44;52035.69;2096245;28;20063;-63
2023/09/08 01:19:44;;;;;;;;;;;;;;;-146.25;86.49;52039.75;2096403;28;19990;-63
2023/09/08 01:21:32;;;;;;;;;;;;;;;-146.25;86.21;52062.03;2089108;28;19921;-63
2023/09/08 01:22:55;;;;;;;;;;;;;;;-146.25;86.62;52047.84;2088865;28;26417;-63
2023/09/08 01:24:05;;;;;;;;;;;;;;;-146.25;86.88;52049.88;2088171;28;32105;-64
2023/09/08 01:25:17;;;;;;;;;;;;;;;-146.25;86.85;52070.16;2087898;28;20834;-64
2023/09/08 01:26:25;;;;;;;;;;;;;;;-146.25;86.64;52039.75;2088294;28;19980;-63
2023/09/08 01:27:29;;;;;;;;;;;;;;;-146.25;86.72;52045.81;2095425;28;30852;-64
2023/09/08 01:28:32;;;;;;;;;;;;;;;-146.25;86.82;52060.00;2095289;28;19913;-63
2023/09/08 01:29:37;;;;;;;;;;;;;;;-146.25;86.89;52068.13;2079899;28;32327;-63
2023/09/08 01:30:39;;;;;;;;;;;;;;;-146.25;86.88;52108.66;2079863;28;25007;-63
2023/09/08 01:31:41;;;;;;;;;;;;;;;-146.25;87.32;52055.97;2078783;28;24028;-64
2023/09/08 01:32:44;;;;;;;;;;;;;;;-146.25;87.52;52039.75;2079791;28;28077;-64
2023/09/08 01:33:46;;;;;;;;;;;;;;;-146.25;87.37;52060.00;2079939;28;25096;-64
2023/09/08 01:34:48;;;;;;;;;;;;;;;-146.25;87.32;52058.00;2079236;28;36374;-63
2023/09/08 01:35:51;;;;;;;;;;;;;;;-146.25;87.50;52043.78;2079290;28;29481;-64
2023/09/08 01:36:56;;;;;;;;;;;;;;;-146.25;87.44;52031.63;2080978;28;19918;-64
2023/09/08 01:37:58;;;;;;;;;;;;;;;-146.25;87.58;52055.97;2079106;28;33914;-63
2023/09/08 01:39:00;;;;;;;;;;;;;;;-146.25;87.01;52051.91;2079434;28;30154;-63
2023/09/08 01:40:02;;;;;;;;;;;;;;;-146.25;87.60;52055.97;2080047;28;28545;-63
2023/09/08 01:41:04;;;;;;;;;;;;;;;-146.25;87.70;52047.84;2080431;28;22605;-63
2023/09/08 01:42:06;;;;;;;;;;;;;;;-146.25;87.80;52053.94;2079484;28;30013;-63
2023/09/08 01:43:07;;;;;;;;;;;;;;;-146.25;88.01;52100.56;2080648;28;19921;-63
2023/09/08 01:44:12;;;;;;;;;;;;;;;-146.25;87.87;52076.22;2080514;28;28704;-63
2023/09/08 01:45:13;;;;;;;;;;;;;;;-146.25;88.04;52068.13;2078867;28;30421;-63
2023/09/08 01:46:15;;;;;;;;;;;;;;;-146.25;88.38;52031.63;2079703;28;19940;-63
2023/09/08 01:47:17;;;;;;;;;;;;;;;-146.25;88.17;52066.09;2079240;28;35560;-64
2023/09/08 01:48:19;;;;;;;;;;;;;;;-146.25;87.74;52058.00;2084553;28;20880;-64
2023/09/08 01:49:21;;;;;;;;;;;;;;;-146.25;87.89;52062.03;2088042;28;29660;-63
2023/09/08 01:50:25;;;;;;;;;;;;;;;-146.25;88.48;52049.88;2088790;28;20043;-62
2023/09/08 01:51:27;;;;;;;;;;;;;;;-146.25;88.11;52084.34;2087997;28;29821;-63
2023/09/08 01:52:29;;;;;;;;;;;;;;;-146.25;88.26;52072.19;2088276;28;27678;-63
2023/09/08 01:53:30;;;;;;;;;;;;;;;-146.25;89.27;52033.66;2088259;28;25270;-63
2023/09/08 01:54:34;;;;;;;;;;;;;;;-146.25;89.04;52045.81;2087816;28;20923;-63
2023/09/08 01:55:36;;;;;;;;;;;;;;;-146.25;89.20;52055.97;2087213;28;32046;-63
2023/09/08 01:56:37;;;;;;;;;;;;;;;-146.25;88.99;52037.72;2087620;28;26105;-64
2023/09/08 01:57:39;;;;;;;;;;;;;;;-146.25;89.40;52053.94;2079751;28;20884;-64
2023/09/08 01:58:40;;;;;;;;;;;;;;;-146.25;89.70;52047.84;2087482;28;20002;-64
2023/09/08 01:59:47;;;;;;;;;;;;;;;-146.25;89.80;52062.03;2088465;28;19925;-63
2023/09/08 02:00:51;;;;;;;;;;;;;;;-146.25;89.75;52058.00;2091119;28;19929;-63
2023/09/08 02:01:52;;;;;;;;;;;;;;;-146.25;90.05;52072.19;2087600;28;31572;-63
2023/09/08 02:02:57;;;;;;;;;;;;;;;-146.25;90.63;52043.78;2087554;28;19925;-63
2023/09/08 02:03:59;;;;;;;;;;;;;;;-146.25;90.69;52037.72;2087669;28;32502;-63
2023/09/08 02:05:00;;;;;;;;;;;;;;;-146.25;90.90;52043.78;2087103;28;31927;-63
2023/09/08 02:06:02;;;;;;;;;;;;;;;-146.25;90.66;52074.22;2087714;28;24351;-63
2023/09/08 02:07:05;;;;;;;;;;;;;;;-146.25;90.89;52045.81;2087852;28;19921;-63
2023/09/08 02:08:06;;;;;;;;;;;;;;;-146.25;90.77;52070.16;2087830;28;29015;-63
2023/09/08 02:09:10;;;;;;;;;;;;;;;-146.25;90.66;52080.28;2087253;28;30969;-64
2023/09/08 02:10:11;;;;;;;;;;;;;;;-146.25;90.50;52041.75;2087570;28;27401;-63
2023/09/08 02:11:13;;;;;;;;;;;;;;;-146.25;91.12;52035.69;2087415;28;19936;-62
2023/09/08 02:12:14;;;;;;;;;;;;;;;-146.25;90.97;52070.16;2079169;28;33650;-63
2023/09/08 02:13:16;;;;;;;;;;;;;;;-146.25;91.31;52062.03;2087405;28;27079;-64
2023/09/08 02:14:18;;;;;;;;;;;;;;;-146.25;90.85;52060.00;2095933;28;31163;-63
2023/09/08 02:15:20;;;;;;;;;;;;;;;-146.25;91.02;52080.28;2095496;28;19948;-63
2023/09/08 02:16:25;;;;;;;;;;;;;;;-146.25;91.90;52086.38;2097122;28;19917;-63
2023/09/08 02:17:26;;;;;;;;;;;;;;;-146.25;91.51;52084.34;2097000;28;30430;-63
2023/09/08 02:18:28;;;;;;;;;;;;;;;-146.25;91.18;52068.13;2091544;28;20831;-63
2023/09/08 02:19:30;;;;;;;;;;;;;;;-146.25;92.32;52051.91;2089270;28;27586;-63
2023/09/08 02:20:31;;;;;;;;;;;;;;;-146.25;92.23;52058.00;2097612;28;23606;-63
2023/09/08 02:21:33;;;;;;;;;;;;;;;-146.25;92.13;52080.28;2097760;28;19917;-63
2023/09/08 02:22:35;;;;;;;;;;;;;;;-146.25;92.23;52062.03;2096998;28;27211;-63
2023/09/08 02:23:37;;;;;;;;;;;;;;;-146.25;91.94;52068.13;2088481;28;20024;-63
2023/09/08 02:24:39;;;;;;;;;;;;;;;-146.25;92.87;52047.84;2089031;28;19929;-64
2023/09/08 02:25:41;;;;;;;;;;;;;;;-146.25;92.21;52058.00;2088671;28;19925;-63
2023/09/08 02:26:43;;;;;;;;;;;;;;;-146.25;92.54;52088.41;2080860;28;19926;-64
2023/09/08 02:27:46;;;;;;;;;;;;;;;-146.25;93.00;52064.06;2088645;28;20106;-63
2023/09/08 02:28:47;;;;;;;;;;;;;;;-146.25;93.10;52045.81;2089306;28;20015;-63
2023/09/08 02:29:52;;;;;;;;;;;;;;;-146.25;93.03;52066.09;2096853;28;19920;-63
2023/09/08 02:30:54;;;;;;;;;;;;;;;-146.25;93.62;52072.19;2088697;28;19999;-64
2023/09/08 02:31:56;;;;;;;;;;;;;;;-146.25;92.96;52072.19;2080442;28;28606;-63
2023/09/08 02:32:58;;;;;;;;;;;;;;;-146.25;93.77;52039.75;2088812;28;25080;-64
2023/09/08 02:34:00;;;;;;;;;;;;;;;-146.25;93.76;52066.09;2088828;28;19987;-63
2023/09/08 02:35:03;;;;;;;;;;;;;;;-146.25;93.69;52058.00;2088944;28;19960;-63
2023/09/08 02:36:05;;;;;;;;;;;;;;;-146.25;93.46;52066.09;2080027;28;26126;-63
2023/09/08 02:37:09;;;;;;;;;;;;;;;-146.25;93.51;52094.47;2080878;28;19928;-63
2023/09/08 02:38:11;;;;;;;;;;;;;;;-146.25;94.58;52092.44;2088871;28;20811;-63
2023/09/08 02:39:13;;;;;;;;;;;;;;;-146.25;94.41;52086.38;2089400;28;24701;-63
2023/09/08 02:40:15;;;;;;;;;;;;;;;-146.25;93.97;52058.00;2089369;28;25446;-63
2023/09/08 02:41:16;;;;;;;;;;;;;;;-146.25;95.68;52043.78;2089480;28;19928;-63
2023/09/08 02:42:19;;;;;;;;;;;;;;;-146.25;94.46;52068.13;2089349;28;19928;-63
2023/09/08 02:43:20;;;;;;;;;;;;;;;-146.25;94.75;52084.34;2089172;28;19975;-63
2023/09/08 02:44:22;;;;;;;;;;;;;;;-146.25;94.67;52064.06;2080620;28;19925;-63
2023/09/08 02:45:24;;;;;;;;;;;;;;;-146.25;95.21;52080.28;2088584;28;19932;-63
2023/09/08 02:46:25;;;;;;;;;;;;;;;-146.25;94.04;52068.13;2080242;28;25280;-64
2023/09/08 02:47:28;;;;;;;;;;;;;;;-146.25;94.54;52043.78;2080876;28;20063;-63
2023/09/08 02:48:32;;;;;;;;;;;;;;;-146.25;94.84;52053.94;2080915;28;20872;-63
2023/09/08 02:49:35;;;;;;;;;;;;;;;-146.25;94.96;52074.22;2088766;28;20880;-63
2023/09/08 02:50:36;;;;;;;;;;;;;;;-146.25;95.74;52082.31;2088972;28;22764;-63
2023/09/08 02:51:38;;;;;;;;;;;;;;;-146.25;95.66;52058.00;2081505;28;20778;-63
2023/09/08 02:52:39;;;;;;;;;;;;;;;-146.25;95.25;52086.38;2088975;28;20717;-63
2023/09/08 02:53:41;;;;;;;;;;;;;;;-146.25;95.68;52104.63;2088916;28;20035;-63
2023/09/08 02:54:43;;;;;;;;;;;;;;;-146.25;95.39;52098.53;2080858;28;30664;-63
2023/09/08 02:55:45;;;;;;;;;;;;;;;-146.25;95.64;52053.94;2080620;28;27149;-63
2023/09/08 02:56:47;;;;;;;;;;;;;;;-146.25;96.48;52055.97;2080690;28;30475;-63
2023/09/08 02:57:49;;;;;;;;;;;;;;;-146.25;96.16;52049.88;2081113;28;20138;-63
2023/09/08 02:58:50;;;;;;;;;;;;;;;-146.25;96.23;52047.84;2088763;28;20281;-63
2023/09/08 02:59:52;;;;;;;;;;;;;;;-146.25;96.69;52100.56;2088023;28;23590;-63
2023/09/08 03:00:54;;;;;;;;;;;;;;;-146.25;95.74;52106.66;2088389;28;26334;-63
2023/09/08 03:01:56;;;;;;;;;;;;;;;-146.25;96.13;52068.13;2088581;28;19917;-63
2023/09/08 03:02:58;;;;;;;;;;;;;;;-146.25;96.31;52086.38;2088572;28;20881;-63
2023/09/08 03:04:00;;;;;;;;;;;;;;;-146.25;96.85;52082.31;2089315;28;20905;-63
2023/09/08 03:05:04;;;;;;;;;;;;;;;-146.25;96.79;52031.63;2088657;28;19925;-64
2023/09/08 03:06:06;;;;;;;;;;;;;;;-146.25;96.74;52068.13;2088936;28;20318;-64
2023/09/08 03:07:08;;;;;;;;;;;;;;;-146.25;96.74;52090.44;2080727;28;19995;-63
2023/09/08 03:08:10;;;;;;;;;;;;;;;-146.25;97.02;52088.41;2080658;28;19921;-64
2023/09/08 03:09:12;;;;;;;;;;;;;;;-146.25;97.20;52082.31;2088657;28;19925;-64
2023/09/08 03:10:13;;;;;;;;;;;;;;;-146.25;97.14;52104.63;2080874;28;31553;-63
2023/09/08 03:11:15;;;;;;;;;;;;;;;-146.25;97.53;52096.50;2081460;28;19997;-63
2023/09/08 03:12:17;;;;;;;;;;;;;;;-146.25;97.15;52060.00;2080986;28;31159;-64
2023/09/08 03:13:18;;;;;;;;;;;;;;;-146.25;97.41;52090.44;2088277;28;31741;-64
2023/09/08 03:14:23;;;;;;;;;;;;;;;-146.25;97.55;52066.09;2088688;28;23513;-63
2023/09/08 03:15:29;;;;;;;;;;;;;;;-146.25;97.14;52070.16;2080895;28;20710;-63
2023/09/08 03:16:31;;;;;;;;;;;;;;;-146.25;97.18;52104.63;2081349;28;20828;-63
2023/09/08 03:17:33;;;;;;;;;;;;;;;-146.25;96.87;52100.56;2087435;28;35772;-64
2023/09/08 03:18:36;;;;;;;;;;;;;;;-146.25;97.24;52078.25;2088619;28;19921;-63
2023/09/08 03:19:39;;;;;;;;;;;;;;;-146.25;97.43;52120.84;2080597;28;20032;-63
2023/09/08 03:20:41;;;;;;;;;;;;;;;-146.25;97.47;52106.66;2080756;28;20006;-64
2023/09/08 03:21:43;;;;;;;;;;;;;;;-146.25;97.40;52039.75;2080870;28;19925;-62
2023/09/08 03:22:45;;;;;;;;;;;;;;;-146.25;97.07;52090.44;2079962;28;29850;-63
2023/09/08 03:23:47;;;;;;;;;;;;;;;-146.25;97.15;52092.44;2080007;28;19952;-64
2023/09/08 03:24:53;;;;;;;;;;;;;;;-146.25;97.50;52074.22;2080669;28;20059;-64
2023/09/08 03:25:56;;;;;;;;;;;;;;;-146.25;97.66;52088.41;2080608;28;20888;-64
2023/09/08 03:26:58;;;;;;;;;;;;;;;-146.25;98.40;52058.00;2081300;28;19922;-64
2023/09/08 03:27:59;;;;;;;;;;;;;;;-146.25;98.50;52096.50;2079125;28;39265;-64
2023/09/08 03:29:01;;;;;;;;;;;;;;;-146.25;98.05;52094.47;2084628;28;35329;-61
2023/09/08 03:30:06;;;;;;;;;;;;;;;-146.25;98.14;52088.41;2096378;28;20481;-64
2023/09/08 03:31:07;;;;;;;;;;;;;;;-146.25;98.40;52082.31;2088683;28;19978;-63
2023/09/08 03:32:10;;;;;;;;;;;;;;;-146.25;98.23;52076.22;2080385;28;19918;-64
2023/09/08 03:33:12;;;;;;;;;;;;;;;-146.25;97.86;52084.34;2072156;28;19991;-63
2023/09/08 03:34:14;;;;;;;;;;;;;;;-146.25;98.44;52100.56;2080118;28;32650;-63
2023/09/08 03:35:17;;;;;;;;;;;;;;;-146.25;98.63;52108.66;2080217;28;19921;-63
2023/09/08 03:36:20;;;;;;;;;;;;;;;-146.25;98.93;52084.34;2080391;28;20033;-63
2023/09/08 03:37:22;;;;;;;;;;;;;;;-146.25;99.12;52106.66;2080625;28;26073;-63
2023/09/08 03:38:24;;;;;;;;;;;;;;;-146.25;98.93;52068.13;2080197;28;25270;-63
2023/09/08 03:39:27;;;;;;;;;;;;;;;-146.25;98.83;52090.44;2072085;28;19961;-64
2023/09/08 03:40:28;;;;;;;;;;;;;;;-146.25;99.30;52104.63;2080380;28;21377;-63
2023/09/08 03:41:32;;;;;;;;;;;;;;;-146.25;99.34;52092.44;2080605;28;20671;-63
2023/09/08 03:42:34;;;;;;;;;;;;;;;-146.25;100.00;52049.88;2079849;28;25600;-63
2023/09/08 03:43:38;;;;;;;;;;;;;;;-146.25;99.64;52102.59;2080546;28;20152;-63
2023/09/08 03:44:39;;;;;;;;;;;;;;;-146.25;99.82;52055.97;2081315;28;19928;-63
2023/09/08 03:45:41;;;;;;;;;;;;;;;-146.25;99.53;52098.53;2080607;28;20027;-64
2023/09/08 03:46:45;;;;;;;;;;;;;;;-146.25;99.62;52062.03;2080301;28;20787;-64
2023/09/08 03:47:48;;;;;;;;;;;;;;;-146.25;100.00;52100.56;2072975;28;20848;-63
2023/09/08 03:48:50;;;;;;;;;;;;;;;-146.25;100.00;52080.28;2088523;28;19921;-63
2023/09/08 03:49:51;;;;;;;;;;;;;;;-146.25;100.00;52133.00;2089168;28;19921;-63
2023/09/08 03:50:53;;;;;;;;;;;;;;;-146.25;100.00;52084.34;2080851;28;21385;-64
2023/09/08 03:51:55;;;;;;;;;;;;;;;-146.25;100.00;52064.06;2081032;28;19925;-63
2023/09/08 03:52:56;;;;;;;;;;;;;;;-146.25;100.00;52102.59;2081077;28;20104;-63
2023/09/08 03:54:00;;;;;;;;;;;;;;;-146.25;100.00;52080.28;2080998;28;19928;-64
2023/09/08 03:55:06;;;;;;;;;;;;;;;-146.25;100.00;52092.44;2088492;28;19913;-64
2023/09/08 03:56:07;;;;;;;;;;;;;;;-146.25;100.00;52116.78;2088332;28;19968;-63
2023/09/08 03:57:09;;;;;;;;;;;;;;;-146.25;100.00;52076.22;2080290;28;19921;-63
2023/09/08 03:58:13;;;;;;;;;;;;;;;-146.25;100.00;52084.34;2080243;28;20055;-63
2023/09/08 03:59:16;;;;;;;;;;;;;;;-146.25;100.00;52090.44;2088173;28;19932;-64
2023/09/08 04:00:21;;;;;;;;;;;;;;;-146.25;100.00;52114.75;2087460;28;26653;-63
2023/09/08 04:01:23;;;;;;;;;;;;;;;-146.25;100.00;52122.88;2080281;28;19921;-63
2023/09/08 04:02:25;;;;;;;;;;;;;;;-146.25;100.00;52088.41;2080318;28;21700;-63
2023/09/08 04:03:26;;;;;;;;;;;;;;;-146.25;100.00;52060.00;2080663;28;19925;-64
2023/09/08 04:04:28;;;;;;;;;;;;;;;-146.25;100.00;52106.66;2080648;28;26749;-64
2023/09/08 04:05:30;;;;;;;;;;;;;;;-146.25;100.00;52112.72;2088372;28;19929;-63
2023/09/08 04:06:31;;;;;;;;;;;;;;;-146.25;100.00;52076.22;2088556;28;19925;-63
2023/09/08 04:07:36;;;;;;;;;;;;;;;-146.25;100.00;52137.06;2080751;28;20707;-64
2023/09/08 04:08:38;;;;;;;;;;;;;;;-146.25;100.00;52104.63;2088040;28;20809;-64
2023/09/08 04:09:42;;;;;;;;;;;;;;;-146.25;100.00;52135.03;2088369;28;19925;-64
2023/09/08 04:10:44;;;;;;;;;;;;;;;-146.25;100.00;52098.53;2088318;28;25240;-63
2023/09/08 04:11:48;;;;;;;;;;;;;;;-146.25;100.00;52108.66;2072119;28;20059;-64
2023/09/08 04:12:49;;;;;;;;;;;;;;;-146.25;100.00;52094.47;2072852;28;21624;-64
2023/09/08 04:13:51;;;;;;;;;;;;;;;-146.25;100.00;52133.00;2080428;28;25558;-64
2023/09/08 04:14:53;;;;;;;;;;;;;;;-146.25;100.00;52104.63;2080803;28;24579;-64
2023/09/08 04:15:57;;;;;;;;;;;;;;;-146.25;100.00;52090.44;2088205;28;19925;-63
2023/09/08 04:16:59;;;;;;;;;;;;;;;-146.25;100.00;52116.78;2080068;28;20158;-63
2023/09/08 04:18:01;;;;;;;;;;;;;;;-146.25;100.00;52114.75;2080056;28;20707;-64
2023/09/08 04:19:03;;;;;;;;;;;;;;;-146.25;100.00;52104.63;2080232;28;19920;-63
2023/09/08 04:20:06;;;;;;;;;;;;;;;-146.25;100.00;52088.41;2079977;28;20737;-63
2023/09/08 04:21:08;;;;;;;;;;;;;;;-146.25;100.00;52128.94;2080160;28;19928;-63
2023/09/08 04:22:12;;;;;;;;;;;;;;;-146.25;100.00;52051.91;2080479;28;26500;-63
2023/09/08 04:23:13;;;;;;;;;;;;;;;-146.25;100.00;52090.44;2088124;28;30069;-63
2023/09/08 04:24:15;;;;;;;;;;;;;;;-146.25;100.00;52074.22;2088439;28;20701;-64
2023/09/08 04:25:17;;;;;;;;;;;;;;;-146.25;100.00;52143.13;2088253;28;20817;-63
2023/09/08 04:26:19;;;;;;;;;;;;;;;-146.25;100.00;52153.28;2088737;28;20000;-63
2023/09/08 04:27:22;;;;;;;;;;;;;;;-146.25;100.00;52120.84;2080491;28;25647;-63
2023/09/08 04:28:24;;;;;;;;;;;;;;;-146.25;100.00;52098.53;2088520;28;19960;-64
2023/09/08 04:29:26;;;;;;;;;;;;;;;-146.25;100.00;52124.91;2096397;28;20087;-63
2023/09/08 04:30:29;;;;;;;;;;;;;;;-146.25;100.00;52104.63;2080752;28;19928;-64
2023/09/08 04:31:31;;;;;;;;;;;;;;;-146.25;100.00;52112.72;2079840;28;19928;-63
2023/09/08 04:32:33;;;;;;;;;;;;;;;-146.25;100.00;52137.06;2079831;28;19929;-63
2023/09/08 04:33:41;;;;;;;;;;;;;;;-146.25;100.00;52094.47;2080082;28;19922;-63
2023/09/08 04:34:43;;;;;;;;;;;;;;;-146.25;100.00;52143.13;2080336;28;19921;-63
2023/09/08 04:35:45;;;;;;;;;;;;;;;-146.25;100.00;52112.72;2088158;28;20778;-64
2023/09/08 04:36:46;;;;;;;;;;;;;;;-146.25;100.00;52124.91;2096545;28;19924;-64
2023/09/08 04:37:48;;;;;;;;;;;;;;;-146.25;100.00;52086.38;2079676;28;19999;-64
2023/09/08 04:38:50;;;;;;;;;;;;;;;-146.25;100.00;52124.91;2079717;28;20722;-64
2023/09/08 04:39:51;;;;;;;;;;;;;;;-146.25;100.00;52092.44;2079755;28;19956;-63
2023/09/08 04:40:53;;;;;;;;;;;;;;;-146.25;100.00;52139.09;2079731;28;20051;-63
2023/09/08 04:41:55;;;;;;;;;;;;;;;-146.25;100.00;52120.84;2080222;28;19921;-63
2023/09/08 04:42:59;;;;;;;;;;;;;;;-146.25;100.00;52072.19;2079713;28;19917;-64
2023/09/08 04:44:00;;;;;;;;;;;;;;;-146.25;100.00;52076.22;2072252;28;19925;-64
2023/09/08 04:45:05;;;;;;;;;;;;;;;-146.25;100.00;52139.09;2088185;28;19921;-64
2023/09/08 04:46:08;;;;;;;;;;;;;;;-146.25;100.00;52116.78;2095765;28;20832;-64
2023/09/08 04:47:12;;;;;;;;;;;;;;;-146.25;100.00;52128.94;2079735;28;19925;-64
2023/09/08 04:48:14;;;;;;;;;;;;;;;-146.25;100.00;52126.91;2084216;28;19917;-63
2023/09/08 04:49:16;;;;;;;;;;;;;;;-146.25;100.00;52096.50;2087942;28;28006;-64
2023/09/08 04:50:18;;;;;;;;;;;;;;;-146.25;100.00;52157.34;2088211;28;20030;-64
2023/09/08 04:51:22;;;;;;;;;;;;;;;-146.25;100.00;52102.59;2079958;28;20797;-63
2023/09/08 04:52:24;;;;;;;;;;;;;;;-146.25;100.00;52108.66;2088336;28;19920;-64
2023/09/08 04:53:25;;;;;;;;;;;;;;;-146.25;100.00;52092.44;2088151;28;20800;-64
2023/09/08 04:54:27;;;;;;;;;;;;;;;-146.25;100.00;52112.72;2087913;28;19921;-64
2023/09/08 04:55:30;;;;;;;;;;;;;;;-146.25;100.00;52078.25;2080136;28;19922;-64
2023/09/08 04:56:31;;;;;;;;;;;;;;;-146.25;100.00;52124.91;2088274;28;27271;-64
2023/09/08 04:57:33;;;;;;;;;;;;;;;-146.25;100.00;52122.88;2096251;28;19925;-63
2023/09/08 04:58:35;;;;;;;;;;;;;;;-146.25;100.00;52128.94;2088060;28;20872;-63
2023/09/08 04:59:39;;;;;;;;;;;;;;;-146.25;100.00;52106.66;2087843;28;27056;-62
2023/09/08 05:00:40;;;;;;;;;;;;;;;-146.25;100.00;52116.78;2087595;28;20124;-63
2023/09/08 05:01:43;;;;;;;;;;;;;;;-146.25;100.00;52128.94;2079655;28;19918;-63
2023/09/08 05:02:45;;;;;;;;;;;;;;;-146.25;100.00;52110.69;2088353;28;19921;-63
2023/09/08 05:03:49;;;;;;;;;;;;;;;-146.25;100.00;52112.72;2087964;28;20056;-63
2023/09/08 05:04:51;;;;;;;;;;;;;;;-146.25;100.00;52110.69;2088267;28;19925;-62
2023/09/08 05:05:52;;;;;;;;;;;;;;;-146.25;100.00;52177.59;2088254;28;20691;-62
2023/09/08 05:06:54;;;;;;;;;;;;;;;-146.25;100.00;52120.84;2079665;28;23798;-63
2023/09/08 05:07:56;;;;;;;;;;;;;;;-146.25;100.00;52074.22;2080153;28;19917;-63
2023/09/08 05:09:00;;;;;;;;;;;;;;;-146.25;100.00;52090.44;2088284;28;19927;-63
2023/09/08 05:10:03;;;;;;;;;;;;;;;-146.25;100.00;52128.94;2087758;28;20890;-63
2023/09/08 05:11:08;;;;;;;;;;;;;;;-146.25;100.00;52122.88;2088122;28;19966;-62
2023/09/08 05:12:10;;;;;;;;;;;;;;;-146.25;100.00;52086.38;2088298;28;19975;-62
2023/09/08 05:13:16;;;;;;;;;;;;;;;-146.25;100.00;52108.66;2088021;28;20703;-62
2023/09/08 05:14:31;;;;;;;;;;;;;;;-146.25;100.00;52078.25;2081888;28;20962;-62
2023/09/08 05:15:33;;;;;;;;;;;;;;;-146.25;100.00;52088.41;2078961;28;20664;-61
2023/09/08 05:16:45;;;;;;;;;;;;;;;-146.25;100.00;52120.84;2088014;28;19928;-62